sensor_id;sensor_type;location;lat;lon;timestamp;P1;durP1;ratioP1;P2;durP2;ratioP2
8552;SDS011;73833;51.014;16.950;2023-12-04T00:02:22;11.98;;;8.48;;
8552;SDS011;73833;51.014;16.950;2023-12-04T00:04:47;11.52;;;9.23;;
8552;SDS011;73833;51.014;16.950;2023-12-04T00:07:12;10.68;;;8.52;;
8552;SDS011;73833;51.014;16.950;2023-12-04T00:09:38;11.15;;;8.82;;
8552;SDS011;73833;51.014;16.950;2023-12-04T00:12:03;10.43;;;8.63;;
8552;SDS011;73833;51.014;16.950;2023-12-04T00:14:28;10.60;;;8.30;;
8552;SDS011;73833;51.014;16.950;2023-12-04T00:16:54;11.35;;;9.00;;
8552;SDS011;73833;51.014;16.950;2023-12-04T00:19:19;10.73;;;8.15;;
8552;SDS011;73833;51.014;16.950;2023-12-04T00:21:44;10.63;;;8.73;;
8552;SDS011;73833;51.014;16.950;2023-12-04T00:24:09;10.27;;;9.00;;
8552;SDS011;73833;51.014;16.950;2023-12-04T00:26:34;11.00;;;8.77;;
8552;SDS011;73833;51.014;16.950;2023-12-04T00:29:00;9.77;;;8.10;;
8552;SDS011;73833;51.014;16.950;2023-12-04T00:31:25;12.75;;;8.55;;
8552;SDS011;73833;51.014;16.950;2023-12-04T00:33:50;10.38;;;8.27;;
8552;SDS011;73833;51.014;16.950;2023-12-04T00:36:16;10.25;;;8.77;;
8552;SDS011;73833;51.014;16.950;2023-12-04T00:38:41;12.35;;;8.98;;
8552;SDS011;73833;51.014;16.950;2023-12-04T00:41:06;8.95;;;7.90;;
8552;SDS011;73833;51.014;16.950;2023-12-04T00:43:31;8.95;;;8.05;;
8552;SDS011;73833;51.014;16.950;2023-12-04T00:45:56;10.30;;;8.38;;
8552;SDS011;73833;51.014;16.950;2023-12-04T00:48:22;10.20;;;8.25;;
8552;SDS011;73833;51.014;16.950;2023-12-04T00:53:50;12.52;;;9.00;;
8552;SDS011;73833;51.014;16.950;2023-12-04T00:56:15;10.32;;;8.38;;
8552;SDS011;73833;51.014;16.950;2023-12-04T00:58:40;10.15;;;8.20;;
8552;SDS011;73833;51.014;16.950;2023-12-04T01:01:06;9.73;;;8.73;;
8552;SDS011;73833;51.014;16.950;2023-12-04T01:03:31;10.00;;;7.82;;
8552;SDS011;73833;51.014;16.950;2023-12-04T01:05:58;11.68;;;8.25;;
8552;SDS011;73833;51.014;16.950;2023-12-04T01:08:23;13.27;;;8.50;;
8552;SDS011;73833;51.014;16.950;2023-12-04T01:10:48;11.68;;;8.50;;
8552;SDS011;73833;51.014;16.950;2023-12-04T01:13:14;10.48;;;8.30;;
8552;SDS011;73833;51.014;16.950;2023-12-04T01:15:39;9.88;;;8.10;;
8552;SDS011;73833;51.014;16.950;2023-12-04T01:18:04;11.20;;;8.85;;
8552;SDS011;73833;51.014;16.950;2023-12-04T01:20:30;8.65;;;7.60;;
8552;SDS011;73833;51.014;16.950;2023-12-04T01:22:55;16.77;;;9.02;;
8552;SDS011;73833;51.014;16.950;2023-12-04T01:25:20;11.05;;;8.88;;
8552;SDS011;73833;51.014;16.950;2023-12-04T01:27:45;10.35;;;8.45;;
8552;SDS011;73833;51.014;16.950;2023-12-04T01:30:11;10.43;;;7.93;;
8552;SDS011;73833;51.014;16.950;2023-12-04T01:32:36;9.70;;;8.35;;
8552;SDS011;73833;51.014;16.950;2023-12-04T01:35:02;11.15;;;8.35;;
8552;SDS011;73833;51.014;16.950;2023-12-04T01:37:27;11.00;;;8.63;;
8552;SDS011;73833;51.014;16.950;2023-12-04T01:39:52;9.90;;;8.82;;
8552;SDS011;73833;51.014;16.950;2023-12-04T01:42:17;10.00;;;7.78;;
8552;SDS011;73833;51.014;16.950;2023-12-04T01:44:43;9.73;;;8.40;;
8552;SDS011;73833;51.014;16.950;2023-12-04T01:47:08;9.68;;;8.23;;
8552;SDS011;73833;51.014;16.950;2023-12-04T01:49:34;10.07;;;8.10;;
8552;SDS011;73833;51.014;16.950;2023-12-04T01:51:59;10.95;;;8.20;;
8552;SDS011;73833;51.014;16.950;2023-12-04T01:54:25;10.48;;;8.40;;
8552;SDS011;73833;51.014;16.950;2023-12-04T01:56:50;10.70;;;7.95;;
8552;SDS011;73833;51.014;16.950;2023-12-04T01:59:15;11.43;;;8.68;;
8552;SDS011;73833;51.014;16.950;2023-12-04T02:01:50;9.77;;;7.90;;
8552;SDS011;73833;51.014;16.950;2023-12-04T02:04:15;9.05;;;7.70;;
8552;SDS011;73833;51.014;16.950;2023-12-04T02:06:40;9.35;;;8.30;;
8552;SDS011;73833;51.014;16.950;2023-12-04T02:09:06;8.95;;;8.05;;
8552;SDS011;73833;51.014;16.950;2023-12-04T02:11:32;9.90;;;8.70;;
8552;SDS011;73833;51.014;16.950;2023-12-04T02:13:57;9.40;;;8.40;;
8552;SDS011;73833;51.014;16.950;2023-12-04T02:16:23;10.18;;;7.93;;
8552;SDS011;73833;51.014;16.950;2023-12-04T02:18:49;10.30;;;8.32;;
8552;SDS011;73833;51.014;16.950;2023-12-04T02:21:14;11.23;;;8.40;;
8552;SDS011;73833;51.014;16.950;2023-12-04T02:23:40;10.40;;;7.80;;
8552;SDS011;73833;51.014;16.950;2023-12-04T02:26:08;10.13;;;8.45;;
8552;SDS011;73833;51.014;16.950;2023-12-04T02:28:34;10.18;;;8.05;;
8552;SDS011;73833;51.014;16.950;2023-12-04T02:31:01;9.85;;;8.13;;
8552;SDS011;73833;51.014;16.950;2023-12-04T02:33:26;11.82;;;8.70;;
8552;SDS011;73833;51.014;16.950;2023-12-04T02:35:52;9.70;;;8.20;;
8552;SDS011;73833;51.014;16.950;2023-12-04T02:38:18;11.85;;;9.30;;
8552;SDS011;73833;51.014;16.950;2023-12-04T02:40:43;10.35;;;8.98;;
8552;SDS011;73833;51.014;16.950;2023-12-04T02:43:08;9.27;;;8.15;;
8552;SDS011;73833;51.014;16.950;2023-12-04T02:45:34;10.75;;;8.65;;
8552;SDS011;73833;51.014;16.950;2023-12-04T02:47:59;10.90;;;8.60;;
8552;SDS011;73833;51.014;16.950;2023-12-04T02:50:24;10.07;;;8.85;;
8552;SDS011;73833;51.014;16.950;2023-12-04T02:52:49;11.10;;;8.50;;
8552;SDS011;73833;51.014;16.950;2023-12-04T02:55:15;11.55;;;8.90;;
8552;SDS011;73833;51.014;16.950;2023-12-04T02:57:40;10.82;;;8.93;;
8552;SDS011;73833;51.014;16.950;2023-12-04T03:00:06;10.23;;;8.52;;
8552;SDS011;73833;51.014;16.950;2023-12-04T03:02:31;10.20;;;8.52;;
8552;SDS011;73833;51.014;16.950;2023-12-04T03:04:56;10.88;;;8.55;;
8552;SDS011;73833;51.014;16.950;2023-12-04T03:07:22;10.65;;;8.90;;
8552;SDS011;73833;51.014;16.950;2023-12-04T03:09:49;12.02;;;8.75;;
8552;SDS011;73833;51.014;16.950;2023-12-04T03:12:14;11.73;;;8.98;;
8552;SDS011;73833;51.014;16.950;2023-12-04T03:14:39;12.63;;;9.18;;
8552;SDS011;73833;51.014;16.950;2023-12-04T03:17:04;11.73;;;8.38;;
8552;SDS011;73833;51.014;16.950;2023-12-04T03:19:30;10.68;;;8.57;;
8552;SDS011;73833;51.014;16.950;2023-12-04T03:21:55;10.90;;;8.93;;
8552;SDS011;73833;51.014;16.950;2023-12-04T03:24:20;10.18;;;8.73;;
8552;SDS011;73833;51.014;16.950;2023-12-04T03:26:46;9.45;;;8.45;;
8552;SDS011;73833;51.014;16.950;2023-12-04T03:29:11;11.27;;;8.90;;
8552;SDS011;73833;51.014;16.950;2023-12-04T03:31:36;11.70;;;8.95;;
8552;SDS011;73833;51.014;16.950;2023-12-04T03:34:03;10.63;;;9.43;;
8552;SDS011;73833;51.014;16.950;2023-12-04T03:36:28;11.00;;;8.95;;
8552;SDS011;73833;51.014;16.950;2023-12-04T03:38:53;10.15;;;8.32;;
8552;SDS011;73833;51.014;16.950;2023-12-04T03:41:19;10.50;;;8.90;;
8552;SDS011;73833;51.014;16.950;2023-12-04T03:43:44;10.88;;;8.98;;
8552;SDS011;73833;51.014;16.950;2023-12-04T03:46:09;11.55;;;9.32;;
8552;SDS011;73833;51.014;16.950;2023-12-04T03:48:35;10.52;;;9.25;;
8552;SDS011;73833;51.014;16.950;2023-12-04T03:51:00;9.90;;;8.82;;
8552;SDS011;73833;51.014;16.950;2023-12-04T03:53:26;11.40;;;9.65;;
8552;SDS011;73833;51.014;16.950;2023-12-04T03:55:51;10.73;;;9.13;;
8552;SDS011;73833;51.014;16.950;2023-12-04T03:58:16;11.30;;;9.07;;
8552;SDS011;73833;51.014;16.950;2023-12-04T04:00:41;13.60;;;9.60;;
8552;SDS011;73833;51.014;16.950;2023-12-04T04:03:08;11.02;;;9.32;;
8552;SDS011;73833;51.014;16.950;2023-12-04T04:05:34;12.07;;;9.38;;
8552;SDS011;73833;51.014;16.950;2023-12-04T04:07:59;12.02;;;9.32;;
8552;SDS011;73833;51.014;16.950;2023-12-04T04:10:24;12.38;;;10.10;;
8552;SDS011;73833;51.014;16.950;2023-12-04T04:12:49;10.23;;;8.93;;
8552;SDS011;73833;51.014;16.950;2023-12-04T04:15:15;10.05;;;8.98;;
8552;SDS011;73833;51.014;16.950;2023-12-04T04:17:40;14.43;;;10.32;;
8552;SDS011;73833;51.014;16.950;2023-12-04T04:20:05;10.95;;;9.18;;
8552;SDS011;73833;51.014;16.950;2023-12-04T04:22:31;12.32;;;9.43;;
8552;SDS011;73833;51.014;16.950;2023-12-04T04:24:59;12.15;;;9.25;;
8552;SDS011;73833;51.014;16.950;2023-12-04T04:27:24;12.05;;;9.77;;
8552;SDS011;73833;51.014;16.950;2023-12-04T04:29:49;10.68;;;9.10;;
8552;SDS011;73833;51.014;16.950;2023-12-04T04:32:15;12.52;;;9.50;;
8552;SDS011;73833;51.014;16.950;2023-12-04T04:34:40;13.63;;;10.43;;
8552;SDS011;73833;51.014;16.950;2023-12-04T04:37:05;17.08;;;12.25;;
8552;SDS011;73833;51.014;16.950;2023-12-04T04:39:30;15.98;;;11.00;;
8552;SDS011;73833;51.014;16.950;2023-12-04T04:41:56;13.02;;;10.73;;
8552;SDS011;73833;51.014;16.950;2023-12-04T04:44:21;15.18;;;11.38;;
8552;SDS011;73833;51.014;16.950;2023-12-04T04:46:46;14.82;;;11.27;;
8552;SDS011;73833;51.014;16.950;2023-12-04T04:49:11;16.73;;;11.65;;
8552;SDS011;73833;51.014;16.950;2023-12-04T04:51:37;15.93;;;11.85;;
8552;SDS011;73833;51.014;16.950;2023-12-04T04:54:02;14.57;;;11.63;;
8552;SDS011;73833;51.014;16.950;2023-12-04T04:56:28;17.60;;;11.18;;
8552;SDS011;73833;51.014;16.950;2023-12-04T04:58:54;15.90;;;11.82;;
8552;SDS011;73833;51.014;16.950;2023-12-04T05:01:19;16.15;;;11.93;;
8552;SDS011;73833;51.014;16.950;2023-12-04T05:03:45;17.83;;;11.75;;
8552;SDS011;73833;51.014;16.950;2023-12-04T05:06:10;15.73;;;11.18;;
8552;SDS011;73833;51.014;16.950;2023-12-04T05:08:35;17.33;;;11.48;;
8552;SDS011;73833;51.014;16.950;2023-12-04T05:11:00;15.55;;;11.48;;
8552;SDS011;73833;51.014;16.950;2023-12-04T05:13:26;16.63;;;11.57;;
8552;SDS011;73833;51.014;16.950;2023-12-04T05:15:51;19.30;;;12.43;;
8552;SDS011;73833;51.014;16.950;2023-12-04T05:18:17;15.60;;;12.07;;
8552;SDS011;73833;51.014;16.950;2023-12-04T05:20:42;18.25;;;11.93;;
8552;SDS011;73833;51.014;16.950;2023-12-04T05:23:07;16.50;;;11.85;;
8552;SDS011;73833;51.014;16.950;2023-12-04T05:25:32;17.33;;;11.93;;
8552;SDS011;73833;51.014;16.950;2023-12-04T05:27:57;17.92;;;11.95;;
8552;SDS011;73833;51.014;16.950;2023-12-04T05:30:23;17.30;;;11.48;;
8552;SDS011;73833;51.014;16.950;2023-12-04T05:32:48;18.17;;;12.13;;
8552;SDS011;73833;51.014;16.950;2023-12-04T05:35:15;16.40;;;11.63;;
8552;SDS011;73833;51.014;16.950;2023-12-04T05:37:40;15.77;;;11.38;;
8552;SDS011;73833;51.014;16.950;2023-12-04T05:40:05;18.90;;;11.88;;
8552;SDS011;73833;51.014;16.950;2023-12-04T05:42:31;17.30;;;12.38;;
8552;SDS011;73833;51.014;16.950;2023-12-04T05:44:56;17.88;;;12.43;;
8552;SDS011;73833;51.014;16.950;2023-12-04T05:47:22;18.95;;;12.38;;
8552;SDS011;73833;51.014;16.950;2023-12-04T05:49:47;17.60;;;12.65;;
8552;SDS011;73833;51.014;16.950;2023-12-04T05:52:13;18.08;;;12.93;;
8552;SDS011;73833;51.014;16.950;2023-12-04T05:54:38;21.52;;;13.00;;
8552;SDS011;73833;51.014;16.950;2023-12-04T05:57:03;17.05;;;12.82;;
8552;SDS011;73833;51.014;16.950;2023-12-04T05:59:28;21.40;;;14.13;;
8552;SDS011;73833;51.014;16.950;2023-12-04T06:01:54;18.98;;;13.07;;
8552;SDS011;73833;51.014;16.950;2023-12-04T06:04:19;20.90;;;14.52;;
8552;SDS011;73833;51.014;16.950;2023-12-04T06:06:44;19.08;;;13.73;;
8552;SDS011;73833;51.014;16.950;2023-12-04T06:09:09;19.00;;;13.05;;
8552;SDS011;73833;51.014;16.950;2023-12-04T06:11:35;20.35;;;13.68;;
8552;SDS011;73833;51.014;16.950;2023-12-04T06:14:00;19.83;;;13.50;;
8552;SDS011;73833;51.014;16.950;2023-12-04T06:16:25;19.13;;;13.25;;
8552;SDS011;73833;51.014;16.950;2023-12-04T06:18:50;21.17;;;13.00;;
8552;SDS011;73833;51.014;16.950;2023-12-04T06:21:15;18.70;;;14.02;;
8552;SDS011;73833;51.014;16.950;2023-12-04T06:23:41;18.63;;;13.50;;
8552;SDS011;73833;51.014;16.950;2023-12-04T06:26:06;21.88;;;14.73;;
8552;SDS011;73833;51.014;16.950;2023-12-04T06:28:32;17.25;;;13.40;;
8552;SDS011;73833;51.014;16.950;2023-12-04T06:30:57;19.63;;;13.48;;
8552;SDS011;73833;51.014;16.950;2023-12-04T06:33:23;20.33;;;13.13;;
8552;SDS011;73833;51.014;16.950;2023-12-04T06:35:48;32.63;;;16.77;;
8552;SDS011;73833;51.014;16.950;2023-12-04T06:38:14;21.85;;;14.30;;
8552;SDS011;73833;51.014;16.950;2023-12-04T06:40:41;27.27;;;16.95;;
8552;SDS011;73833;51.014;16.950;2023-12-04T06:43:06;28.77;;;17.40;;
8552;SDS011;73833;51.014;16.950;2023-12-04T06:45:32;39.65;;;21.85;;
8552;SDS011;73833;51.014;16.950;2023-12-04T06:47:57;38.13;;;20.70;;
8552;SDS011;73833;51.014;16.950;2023-12-04T06:50:23;48.65;;;25.20;;
8552;SDS011;73833;51.014;16.950;2023-12-04T06:52:49;41.92;;;21.88;;
8552;SDS011;73833;51.014;16.950;2023-12-04T06:55:14;38.03;;;22.85;;
8552;SDS011;73833;51.014;16.950;2023-12-04T06:57:39;35.40;;;22.20;;
8552;SDS011;73833;51.014;16.950;2023-12-04T07:00:05;40.13;;;23.02;;
8552;SDS011;73833;51.014;16.950;2023-12-04T07:02:32;38.88;;;23.02;;
8552;SDS011;73833;51.014;16.950;2023-12-04T07:04:57;35.28;;;22.67;;
8552;SDS011;73833;51.014;16.950;2023-12-04T07:07:23;37.75;;;23.67;;
8552;SDS011;73833;51.014;16.950;2023-12-04T07:09:48;39.53;;;23.98;;
8552;SDS011;73833;51.014;16.950;2023-12-04T07:12:13;37.53;;;22.85;;
8552;SDS011;73833;51.014;16.950;2023-12-04T07:14:38;40.35;;;22.77;;
8552;SDS011;73833;51.014;16.950;2023-12-04T07:17:04;38.15;;;23.70;;
8552;SDS011;73833;51.014;16.950;2023-12-04T07:19:29;34.33;;;23.05;;
8552;SDS011;73833;51.014;16.950;2023-12-04T07:21:55;33.08;;;22.50;;
8552;SDS011;73833;51.014;16.950;2023-12-04T07:24:20;33.95;;;21.92;;
8552;SDS011;73833;51.014;16.950;2023-12-04T07:26:45;35.60;;;22.48;;
8552;SDS011;73833;51.014;16.950;2023-12-04T07:29:10;35.35;;;22.25;;
8552;SDS011;73833;51.014;16.950;2023-12-04T07:31:37;36.33;;;23.25;;
8552;SDS011;73833;51.014;16.950;2023-12-04T07:34:02;34.22;;;21.95;;
8552;SDS011;73833;51.014;16.950;2023-12-04T07:36:28;32.67;;;22.27;;
8552;SDS011;73833;51.014;16.950;2023-12-04T07:38:53;32.75;;;21.10;;
8552;SDS011;73833;51.014;16.950;2023-12-04T07:41:19;33.78;;;21.92;;
8552;SDS011;73833;51.014;16.950;2023-12-04T07:43:44;33.22;;;21.48;;
8552;SDS011;73833;51.014;16.950;2023-12-04T07:46:09;33.75;;;22.50;;
8552;SDS011;73833;51.014;16.950;2023-12-04T07:48:35;34.67;;;22.45;;
8552;SDS011;73833;51.014;16.950;2023-12-04T07:51:01;34.28;;;22.13;;
8552;SDS011;73833;51.014;16.950;2023-12-04T07:53:26;31.48;;;22.38;;
8552;SDS011;73833;51.014;16.950;2023-12-04T07:55:51;31.27;;;21.88;;
8552;SDS011;73833;51.014;16.950;2023-12-04T07:58:17;32.03;;;21.20;;
8552;SDS011;73833;51.014;16.950;2023-12-04T08:00:42;33.30;;;23.47;;
8552;SDS011;73833;51.014;16.950;2023-12-04T08:03:08;32.28;;;21.85;;
8552;SDS011;73833;51.014;16.950;2023-12-04T08:05:33;35.88;;;21.63;;
8552;SDS011;73833;51.014;16.950;2023-12-04T08:07:58;34.53;;;22.27;;
8552;SDS011;73833;51.014;16.950;2023-12-04T08:10:24;29.67;;;21.33;;
8552;SDS011;73833;51.014;16.950;2023-12-04T08:12:49;30.70;;;20.95;;
8552;SDS011;73833;51.014;16.950;2023-12-04T08:15:14;30.65;;;21.45;;
8552;SDS011;73833;51.014;16.950;2023-12-04T08:17:40;29.23;;;21.35;;
8552;SDS011;73833;51.014;16.950;2023-12-04T08:20:05;31.23;;;20.95;;
8552;SDS011;73833;51.014;16.950;2023-12-04T08:22:31;33.25;;;20.88;;
8552;SDS011;73833;51.014;16.950;2023-12-04T08:24:56;30.80;;;21.02;;
8552;SDS011;73833;51.014;16.950;2023-12-04T08:27:23;27.75;;;20.35;;
8552;SDS011;73833;51.014;16.950;2023-12-04T08:29:48;30.17;;;21.15;;
8552;SDS011;73833;51.014;16.950;2023-12-04T08:32:13;34.17;;;21.47;;
8552;SDS011;73833;51.014;16.950;2023-12-04T08:34:38;30.17;;;21.33;;
8552;SDS011;73833;51.014;16.950;2023-12-04T08:37:04;29.13;;;20.40;;
8552;SDS011;73833;51.014;16.950;2023-12-04T08:39:29;31.50;;;22.33;;
8552;SDS011;73833;51.014;16.950;2023-12-04T08:41:54;27.23;;;20.25;;
8552;SDS011;73833;51.014;16.950;2023-12-04T08:44:19;29.95;;;21.15;;
8552;SDS011;73833;51.014;16.950;2023-12-04T08:46:45;29.33;;;20.95;;
8552;SDS011;73833;51.014;16.950;2023-12-04T08:49:10;30.10;;;20.45;;
8552;SDS011;73833;51.014;16.950;2023-12-04T08:51:35;27.85;;;20.70;;
8552;SDS011;73833;51.014;16.950;2023-12-04T08:54:00;30.15;;;20.67;;
8552;SDS011;73833;51.014;16.950;2023-12-04T08:56:26;26.38;;;19.25;;
8552;SDS011;73833;51.014;16.950;2023-12-04T08:58:51;29.45;;;20.27;;
8552;SDS011;73833;51.014;16.950;2023-12-04T09:01:16;32.03;;;22.63;;
8552;SDS011;73833;51.014;16.950;2023-12-04T09:03:42;31.25;;;19.80;;
8552;SDS011;73833;51.014;16.950;2023-12-04T09:06:07;32.47;;;21.70;;
8552;SDS011;73833;51.014;16.950;2023-12-04T09:08:32;28.70;;;19.95;;
8552;SDS011;73833;51.014;16.950;2023-12-04T09:10:57;28.02;;;20.48;;
8552;SDS011;73833;51.014;16.950;2023-12-04T09:13:23;28.15;;;20.85;;
8552;SDS011;73833;51.014;16.950;2023-12-04T09:15:48;30.70;;;20.02;;
8552;SDS011;73833;51.014;16.950;2023-12-04T09:18:13;27.60;;;19.83;;
8552;SDS011;73833;51.014;16.950;2023-12-04T09:20:38;27.30;;;19.67;;
8552;SDS011;73833;51.014;16.950;2023-12-04T09:23:04;25.50;;;18.95;;
8552;SDS011;73833;51.014;16.950;2023-12-04T09:25:29;28.38;;;20.33;;
8552;SDS011;73833;51.014;16.950;2023-12-04T09:27:54;24.35;;;18.60;;
8552;SDS011;73833;51.014;16.950;2023-12-04T09:30:19;26.15;;;19.38;;
8552;SDS011;73833;51.014;16.950;2023-12-04T09:32:44;26.45;;;18.85;;
8552;SDS011;73833;51.014;16.950;2023-12-04T09:35:10;24.25;;;18.10;;
8552;SDS011;73833;51.014;16.950;2023-12-04T09:37:35;25.30;;;18.92;;
8552;SDS011;73833;51.014;16.950;2023-12-04T09:40:01;26.50;;;19.42;;
8552;SDS011;73833;51.014;16.950;2023-12-04T09:42:26;26.17;;;19.08;;
8552;SDS011;73833;51.014;16.950;2023-12-04T09:44:52;27.25;;;18.88;;
8552;SDS011;73833;51.014;16.950;2023-12-04T09:47:18;29.38;;;19.67;;
8552;SDS011;73833;51.014;16.950;2023-12-04T09:49:44;36.97;;;19.92;;
8552;SDS011;73833;51.014;16.950;2023-12-04T09:52:09;25.95;;;19.17;;
8552;SDS011;73833;51.014;16.950;2023-12-04T09:54:35;28.65;;;19.38;;
8552;SDS011;73833;51.014;16.950;2023-12-04T09:57:00;25.27;;;18.75;;
8552;SDS011;73833;51.014;16.950;2023-12-04T09:59:26;30.02;;;18.95;;
8552;SDS011;73833;51.014;16.950;2023-12-04T10:01:54;24.02;;;19.08;;
8552;SDS011;73833;51.014;16.950;2023-12-04T10:04:19;24.67;;;18.77;;
8552;SDS011;73833;51.014;16.950;2023-12-04T10:06:46;26.90;;;18.90;;
8552;SDS011;73833;51.014;16.950;2023-12-04T10:09:13;25.13;;;18.50;;
8552;SDS011;73833;51.014;16.950;2023-12-04T10:11:41;31.48;;;18.50;;
8552;SDS011;73833;51.014;16.950;2023-12-04T10:14:16;22.67;;;17.55;;
8552;SDS011;73833;51.014;16.950;2023-12-04T10:16:42;25.42;;;18.58;;
8552;SDS011;73833;51.014;16.950;2023-12-04T10:22:02;24.73;;;16.63;;
8552;SDS011;73833;51.014;16.950;2023-12-04T10:24:30;25.27;;;17.40;;
8552;SDS011;73833;51.014;16.950;2023-12-04T10:26:55;25.35;;;18.27;;
8552;SDS011;73833;51.014;16.950;2023-12-04T10:29:21;26.88;;;18.08;;
8552;SDS011;73833;51.014;16.950;2023-12-04T10:31:46;24.35;;;17.67;;
8552;SDS011;73833;51.014;16.950;2023-12-04T10:34:15;29.58;;;20.17;;
8552;SDS011;73833;51.014;16.950;2023-12-04T10:36:40;25.25;;;18.98;;
8552;SDS011;73833;51.014;16.950;2023-12-04T10:39:05;28.65;;;19.10;;
8552;SDS011;73833;51.014;16.950;2023-12-04T10:41:31;25.00;;;18.05;;
8552;SDS011;73833;51.014;16.950;2023-12-04T10:43:59;27.48;;;19.00;;
8552;SDS011;73833;51.014;16.950;2023-12-04T10:46:25;26.35;;;17.98;;
8552;SDS011;73833;51.014;16.950;2023-12-04T10:48:51;25.02;;;18.23;;
8552;SDS011;73833;51.014;16.950;2023-12-04T10:51:17;24.83;;;18.63;;
8552;SDS011;73833;51.014;16.950;2023-12-04T10:53:42;22.02;;;16.95;;
8552;SDS011;73833;51.014;16.950;2023-12-04T10:56:09;23.75;;;18.05;;
8552;SDS011;73833;51.014;16.950;2023-12-04T10:58:36;26.02;;;16.85;;
8552;SDS011;73833;51.014;16.950;2023-12-04T11:01:04;25.23;;;18.15;;
8552;SDS011;73833;51.014;16.950;2023-12-04T11:03:37;22.58;;;16.88;;
8552;SDS011;73833;51.014;16.950;2023-12-04T11:06:05;23.67;;;17.40;;
8552;SDS011;73833;51.014;16.950;2023-12-04T11:08:33;25.63;;;18.42;;
8552;SDS011;73833;51.014;16.950;2023-12-04T11:13:25;25.40;;;17.90;;
8552;SDS011;73833;51.014;16.950;2023-12-04T11:15:52;22.92;;;17.77;;
8552;SDS011;73833;51.014;16.950;2023-12-04T11:18:19;24.25;;;18.13;;
8552;SDS011;73833;51.014;16.950;2023-12-04T11:20:54;24.70;;;17.85;;
8552;SDS011;73833;51.014;16.950;2023-12-04T11:23:21;21.83;;;16.95;;
8552;SDS011;73833;51.014;16.950;2023-12-04T11:25:47;21.95;;;17.67;;
8552;SDS011;73833;51.014;16.950;2023-12-04T11:28:12;26.42;;;17.98;;
8552;SDS011;73833;51.014;16.950;2023-12-04T11:30:38;24.33;;;18.50;;
8552;SDS011;73833;51.014;16.950;2023-12-04T11:33:04;23.25;;;17.83;;
8552;SDS011;73833;51.014;16.950;2023-12-04T11:35:29;23.92;;;17.77;;
8552;SDS011;73833;51.014;16.950;2023-12-04T11:37:55;23.88;;;18.00;;
8552;SDS011;73833;51.014;16.950;2023-12-04T11:40:22;25.00;;;18.48;;
8552;SDS011;73833;51.014;16.950;2023-12-04T11:42:47;25.70;;;17.85;;
8552;SDS011;73833;51.014;16.950;2023-12-04T11:45:18;26.17;;;17.75;;
8552;SDS011;73833;51.014;16.950;2023-12-04T11:47:56;23.45;;;18.02;;
8552;SDS011;73833;51.014;16.950;2023-12-04T11:50:22;23.13;;;17.65;;
8552;SDS011;73833;51.014;16.950;2023-12-04T11:52:48;24.00;;;17.30;;
8552;SDS011;73833;51.014;16.950;2023-12-04T11:55:18;27.10;;;18.42;;
8552;SDS011;73833;51.014;16.950;2023-12-04T11:57:44;23.58;;;17.48;;
8552;SDS011;73833;51.014;16.950;2023-12-04T12:00:11;25.40;;;18.30;;
8552;SDS011;73833;51.014;16.950;2023-12-04T12:02:38;21.00;;;17.55;;
8552;SDS011;73833;51.014;16.950;2023-12-04T12:05:03;22.40;;;17.83;;
8552;SDS011;73833;51.014;16.950;2023-12-04T12:07:29;26.50;;;18.25;;
8552;SDS011;73833;51.014;16.950;2023-12-04T12:09:55;27.33;;;18.85;;
8552;SDS011;73833;51.014;16.950;2023-12-04T12:12:20;23.70;;;17.67;;
8552;SDS011;73833;51.014;16.950;2023-12-04T12:14:45;22.35;;;17.92;;
8552;SDS011;73833;51.014;16.950;2023-12-04T12:17:10;24.38;;;18.30;;
8552;SDS011;73833;51.014;16.950;2023-12-04T12:19:36;25.92;;;18.90;;
8552;SDS011;73833;51.014;16.950;2023-12-04T12:22:02;20.48;;;16.98;;
8552;SDS011;73833;51.014;16.950;2023-12-04T12:24:28;25.38;;;18.65;;
8552;SDS011;73833;51.014;16.950;2023-12-04T12:26:53;24.75;;;18.73;;
8552;SDS011;73833;51.014;16.950;2023-12-04T12:29:19;22.92;;;17.17;;
8552;SDS011;73833;51.014;16.950;2023-12-04T12:31:44;22.98;;;17.77;;
8552;SDS011;73833;51.014;16.950;2023-12-04T12:34:11;21.38;;;17.52;;
8552;SDS011;73833;51.014;16.950;2023-12-04T12:36:36;25.23;;;19.30;;
8552;SDS011;73833;51.014;16.950;2023-12-04T12:39:01;23.77;;;19.30;;
8552;SDS011;73833;51.014;16.950;2023-12-04T12:41:29;23.80;;;18.77;;
8552;SDS011;73833;51.014;16.950;2023-12-04T12:43:54;28.77;;;19.48;;
8552;SDS011;73833;51.014;16.950;2023-12-04T12:46:20;24.98;;;19.48;;
8552;SDS011;73833;51.014;16.950;2023-12-04T12:48:46;24.45;;;18.45;;
8552;SDS011;73833;51.014;16.950;2023-12-04T12:51:11;22.15;;;17.88;;
8552;SDS011;73833;51.014;16.950;2023-12-04T12:53:37;24.75;;;19.58;;
8552;SDS011;73833;51.014;16.950;2023-12-04T12:56:03;22.92;;;18.73;;
8552;SDS011;73833;51.014;16.950;2023-12-04T12:58:28;22.63;;;18.17;;
8552;SDS011;73833;51.014;16.950;2023-12-04T13:00:54;24.30;;;18.77;;
8552;SDS011;73833;51.014;16.950;2023-12-04T13:03:19;24.95;;;18.75;;
8552;SDS011;73833;51.014;16.950;2023-12-04T13:05:45;28.27;;;19.33;;
8552;SDS011;73833;51.014;16.950;2023-12-04T13:08:11;27.52;;;19.60;;
8552;SDS011;73833;51.014;16.950;2023-12-04T13:10:40;24.90;;;19.27;;
8552;SDS011;73833;51.014;16.950;2023-12-04T13:13:14;24.65;;;19.00;;
8552;SDS011;73833;51.014;16.950;2023-12-04T13:15:40;27.77;;;19.05;;
8552;SDS011;73833;51.014;16.950;2023-12-04T13:18:06;26.85;;;19.65;;
8552;SDS011;73833;51.014;16.950;2023-12-04T13:20:31;24.30;;;19.13;;
8552;SDS011;73833;51.014;16.950;2023-12-04T13:22:56;25.23;;;18.90;;
8552;SDS011;73833;51.014;16.950;2023-12-04T13:25:21;24.45;;;18.73;;
8552;SDS011;73833;51.014;16.950;2023-12-04T13:27:47;25.98;;;19.35;;
8552;SDS011;73833;51.014;16.950;2023-12-04T13:30:13;24.95;;;19.15;;
8552;SDS011;73833;51.014;16.950;2023-12-04T13:32:38;24.23;;;18.63;;
8552;SDS011;73833;51.014;16.950;2023-12-04T13:35:04;26.15;;;18.55;;
8552;SDS011;73833;51.014;16.950;2023-12-04T13:37:30;28.40;;;19.70;;
8552;SDS011;73833;51.014;16.950;2023-12-04T13:39:55;22.20;;;18.77;;
8552;SDS011;73833;51.014;16.950;2023-12-04T13:42:26;25.95;;;19.38;;
8552;SDS011;73833;51.014;16.950;2023-12-04T13:45:09;25.83;;;19.73;;
8552;SDS011;73833;51.014;16.950;2023-12-04T13:47:35;25.33;;;19.30;;
8552;SDS011;73833;51.014;16.950;2023-12-04T13:50:01;24.40;;;19.10;;
8552;SDS011;73833;51.014;16.950;2023-12-04T13:52:26;26.48;;;18.80;;
8552;SDS011;73833;51.014;16.950;2023-12-04T13:54:55;25.80;;;19.33;;
8552;SDS011;73833;51.014;16.950;2023-12-04T13:57:22;24.55;;;20.08;;
8552;SDS011;73833;51.014;16.950;2023-12-04T13:59:53;23.05;;;19.55;;
8552;SDS011;73833;51.014;16.950;2023-12-04T14:02:18;25.02;;;20.20;;
8552;SDS011;73833;51.014;16.950;2023-12-04T14:04:43;24.02;;;19.10;;
8552;SDS011;73833;51.014;16.950;2023-12-04T14:07:08;28.65;;;21.77;;
8552;SDS011;73833;51.014;16.950;2023-12-04T14:09:35;26.90;;;21.30;;
8552;SDS011;73833;51.014;16.950;2023-12-04T14:12:00;23.83;;;20.20;;
8552;SDS011;73833;51.014;16.950;2023-12-04T14:14:25;28.50;;;21.85;;
8552;SDS011;73833;51.014;16.950;2023-12-04T14:16:51;23.98;;;20.80;;
8552;SDS011;73833;51.014;16.950;2023-12-04T14:19:17;28.08;;;21.35;;
8552;SDS011;73833;51.014;16.950;2023-12-04T14:21:46;28.98;;;22.73;;
8552;SDS011;73833;51.014;16.950;2023-12-04T14:24:13;27.75;;;22.33;;
8552;SDS011;73833;51.014;16.950;2023-12-04T14:26:38;26.85;;;20.95;;